Weather at Bancroft Airport

Public forecast

Using degrees Celsius for public forecast. Weather courtesy of forecast.io.

Closest aviation weather report (METAR) to Bancroft Airport

Closest report is Peterborough Municipal Airport, 54.7 nm (101.2 km) SSW.

2024/05/29 17:00 (retrieved 50 minutes ago)

CYPQ 291700Z AUTO 36009KT 300V010 9SM CLR 17/03 A3001 RMK SLP167 DENSITY ALT 1000FT

Closest aviation forecast (TAF) to Bancroft Airport

Closest forecast is Peterborough Municipal Airport, 54.7 nm (101.2 km) SSW.

2024/05/29 14:42 (retrieved 3 hours ago)

TAF CYPQ 291340Z 2914/3002 36008KT P6SM FEW060 SCT240 RMK FCST BASED ON AUTO OBS NXT FCST BY 292000Z